Time;durP1;ratioP1;P1;durP2;ratioP2;P2;SDS_P1;SDS_P2;PMS_P1;PMS_P2;Temp;Humidity;BMP_temperature;BMP_pressure;BME280_temperature;BME280_humidity;BME280_pressure;Samples;Min_cycle;Max_cycle;Signal;HPM_P1;HPM_P2
2023/04/11 00:01:31;;;;;;;22.30;14.88;;;10.50;99.90;;;9.19;79.31;100678.97;5020667;28;20061;-73
2023/04/11 00:03:58;;;;;;;21.73;14.25;;;10.60;99.90;;;9.17;79.32;100668.50;4984707;28;20083;-73
2023/04/11 00:06:27;;;;;;;20.08;12.63;;;10.50;99.90;;;9.14;79.35;100666.03;4982312;28;20046;-73
2023/04/11 00:08:53;;;;;;;19.63;13.45;;;10.50;99.90;;;9.15;79.42;100662.47;4995403;28;20502;-73
2023/04/11 00:11:19;;;;;;;20.73;14.70;;;10.50;99.90;;;9.15;79.02;100649.31;5014549;28;20049;-73
2023/04/11 00:13:48;;;;;;;21.13;13.98;;;10.50;99.90;;;9.16;79.27;100658.09;5006452;28;20045;-72
2023/04/11 00:16:15;;;;;;;20.55;14.32;;;10.60;99.90;;;9.16;79.05;100644.94;5010940;28;20568;-73
2023/04/11 00:18:43;;;;;;;21.92;13.90;;;10.50;99.90;;;9.16;78.97;100635.28;5013474;28;20053;-73
2023/04/11 00:21:09;;;;;;;21.98;14.30;;;10.50;99.90;;;9.15;79.23;100630.94;5012727;28;20080;-72
2023/04/11 00:23:35;;;;;;;19.88;14.43;;;10.50;99.90;;;9.13;78.98;100631.94;4994838;28;20036;-73
2023/04/11 00:26:04;;;;;;;21.40;13.70;;;10.50;99.90;;;9.13;78.53;100619.63;5001968;28;20050;-73
2023/04/11 00:28:30;;;;;;;23.55;14.07;;;;;;;9.12;78.69;100617.94;5014603;28;20095;-73
2023/04/11 00:30:56;;;;;;;20.35;13.98;;;10.50;99.90;;;9.08;78.63;100611.13;5005200;28;20124;-73
2023/04/11 00:33:22;;;;;;;20.05;13.52;;;10.50;99.90;;;9.11;78.27;100605.72;5013703;28;20054;-73
2023/04/11 00:35:48;;;;;;;20.48;13.63;;;10.50;99.90;;;9.09;78.59;100589.16;4979983;28;20117;-73
2023/04/11 00:38:14;;;;;;;19.38;13.68;;;10.50;99.90;;;9.09;78.56;100590.94;5015006;28;20050;-74
2023/04/11 00:40:40;;;;;;;19.23;13.52;;;10.50;99.90;;;9.06;78.10;100583.22;4990393;28;20038;-74
2023/04/11 00:43:05;;;;;;;18.27;13.35;;;10.40;99.90;;;9.07;77.90;100583.16;5031048;28;20375;-73
2023/04/11 00:45:32;;;;;;;20.88;13.95;;;10.40;99.90;;;9.02;77.76;100578.06;5019620;28;20033;-73
2023/04/11 00:47:58;;;;;;;19.70;13.32;;;10.40;99.90;;;9.06;77.61;100567.44;5011488;28;20120;-73
2023/04/11 00:50:24;;;;;;;24.58;13.95;;;10.40;99.90;;;9.02;77.45;100566.72;5011185;28;20038;-73
2023/04/11 00:52:52;;;;;;;20.88;13.48;;;10.40;99.90;;;9.01;77.50;100560.63;5035675;22;20021;-77
2023/04/11 00:55:17;;;;;;;20.05;13.35;;;10.40;99.90;;;9.02;77.38;100553.59;5014518;28;20041;-77
2023/04/11 00:57:44;;;;;;;17.80;12.82;;;10.40;99.90;;;9.00;77.55;100553.66;5023729;28;20038;-77
2023/04/11 01:00:11;;;;;;;19.17;12.80;;;10.40;99.90;;;9.01;77.48;100544.88;5015076;28;20036;-78
2023/04/11 01:02:41;;;;;;;20.30;13.00;;;10.40;99.90;;;9.02;77.31;100538.69;5012796;28;20025;-78
2023/04/11 01:05:13;;;;;;;19.30;13.85;;;10.40;99.90;;;9.03;77.38;100544.81;5022237;28;20044;-77
2023/04/11 01:07:42;;;;;;;19.00;12.77;;;10.40;99.90;;;9.02;77.09;100543.94;5019494;28;20405;-78
2023/04/11 01:10:09;;;;;;;19.83;13.23;;;10.40;99.90;;;9.01;77.47;100544.88;5022435;28;20043;-78
2023/04/11 01:12:37;;;;;;;18.40;11.45;;;10.40;99.90;;;8.95;77.11;100542.50;5033245;28;20176;-77
2023/04/11 01:15:05;;;;;;;17.90;12.65;;;10.40;99.90;;;8.97;76.83;100529.31;5022127;28;20155;-78
2023/04/11 01:17:31;;;;;;;20.48;13.43;;;10.40;99.90;;;8.98;77.13;100521.34;5021182;28;20113;-77
2023/04/11 01:19:58;;;;;;;21.23;14.05;;;10.40;99.90;;;8.98;76.47;100521.34;5038288;28;20033;-78
2023/04/11 01:22:26;;;;;;;17.73;12.30;;;10.40;99.90;;;8.98;76.27;100515.25;5021407;28;20410;-78
2023/04/11 01:24:52;;;;;;;19.23;13.07;;;10.40;99.90;;;8.94;76.67;100505.78;5004301;28;20463;-77
2023/04/11 01:27:18;;;;;;;18.55;12.43;;;10.40;99.90;;;8.95;76.33;100505.72;5019841;28;20075;-77
2023/04/11 01:29:44;;;;;;;18.88;12.18;;;10.30;99.90;;;8.98;76.15;100494.22;5021747;28;20120;-77
2023/04/11 01:32:10;;;;;;;18.88;12.70;;;10.40;99.90;;;8.97;75.63;100485.50;5022771;28;20541;-77
2023/04/11 01:34:40;;;;;;;17.58;12.40;;;10.30;99.90;;;8.92;75.67;100487.50;4995579;28;20116;-77
2023/04/11 01:37:06;;;;;;;17.73;12.02;;;10.30;99.90;;;8.91;75.86;100471.78;5002741;28;20052;-77
2023/04/11 01:39:31;;;;;;;22.33;12.02;;;10.30;99.90;;;8.93;75.30;100462.94;5022195;28;20025;-78
2023/04/11 01:41:59;;;;;;;21.00;12.38;;;10.30;99.90;;;8.96;75.07;100456.69;5003620;28;20167;-77
2023/04/11 01:44:26;;;;;;;21.00;13.07;;;10.30;99.90;;;8.95;75.50;100460.25;5020852;28;20037;-78
2023/04/11 01:46:52;;;;;;;17.02;11.48;;;10.30;99.90;;;8.93;75.11;100452.41;5020677;28;20535;-77
2023/04/11 01:49:18;;;;;;;17.38;12.07;;;10.30;99.90;;;8.94;74.86;100453.25;5025531;28;20030;-77
2023/04/11 01:51:44;;;;;;;20.27;12.07;;;10.30;99.90;;;8.97;74.49;100448.75;5040237;28;20028;-77
2023/04/11 01:54:10;;;;;;;17.63;12.25;;;10.30;99.90;;;8.99;74.37;100441.66;5005616;28;20108;-78
2023/04/11 01:56:36;;;;;;;17.30;11.82;;;10.40;99.90;;;8.99;74.77;100435.56;5020385;28;20102;-78
2023/04/11 01:59:03;;;;;;;19.27;11.35;;;10.40;99.90;;;8.96;74.66;100438.28;5039462;28;20036;-78
2023/04/11 02:01:29;;;;;;;16.88;11.40;;;10.30;99.90;;;8.97;74.48;100440.03;5042564;28;20041;-78
2023/04/11 02:03:56;;;;;;;18.30;11.82;;;10.30;99.90;;;8.95;74.15;100437.44;5022944;28;20038;-78
2023/04/11 02:06:22;;;;;;;19.85;12.30;;;10.30;99.90;;;8.94;74.45;100435.75;5022864;28;20102;-78
2023/04/11 02:08:47;;;;;;;17.05;11.75;;;10.30;99.90;;;8.92;74.26;100421.84;5019382;28;20521;-78
2023/04/11 02:11:13;;;;;;;16.75;11.50;;;10.30;99.90;;;8.94;74.22;100427.00;5031430;28;20025;-78
2023/04/11 02:13:39;;;;;;;18.10;11.55;;;10.30;99.90;;;8.90;74.34;100421.06;5039262;28;20029;-78
2023/04/11 02:16:13;;;;;;;17.45;11.80;;;10.30;99.90;;;8.91;73.86;100416.66;5022376;28;20037;-77
2023/04/11 02:18:43;;;;;;;17.63;11.60;;;10.30;99.90;;;8.89;74.33;100414.09;5010795;28;20064;-77
2023/04/11 02:21:09;;;;;;;14.77;10.95;;;10.30;99.90;;;8.89;74.32;100408.00;5020528;28;20037;-77
2023/04/11 02:23:35;;;;;;;18.65;11.00;;;10.30;99.90;;;8.89;73.92;100405.38;5019888;28;20401;-78
2023/04/11 02:26:02;;;;;;;16.90;11.32;;;10.30;99.90;;;8.85;74.06;100406.41;5021522;28;20070;-77
2023/04/11 02:28:28;;;;;;;16.30;11.05;;;10.30;99.90;;;8.87;74.05;100399.34;5020710;28;20444;-77
2023/04/11 02:30:54;;;;;;;15.98;11.35;;;10.30;99.90;;;8.87;73.61;100400.19;5021084;28;20061;-77
2023/04/11 02:33:21;;;;;;;17.15;10.88;;;10.20;99.90;;;8.85;73.70;100398.53;5035517;28;20079;-78
2023/04/11 02:35:47;;;;;;;16.73;11.10;;;10.20;99.90;;;8.87;73.90;100388.81;5021226;28;20493;-77
2023/04/11 02:38:13;;;;;;;15.07;10.55;;;10.30;99.90;;;8.87;73.55;100392.28;5020500;28;20043;-77
2023/04/11 02:40:39;;;;;;;17.88;10.98;;;10.30;99.90;;;8.89;73.02;100387.00;5019867;28;20033;-77
2023/04/11 02:43:05;;;;;;;13.80;10.10;;;10.30;99.90;;;8.90;73.38;100379.06;5018912;28;20037;-77
2023/04/11 02:45:31;;;;;;;15.35;10.43;;;10.30;99.90;;;8.89;72.94;100381.72;5016063;28;20054;-77
2023/04/11 02:47:57;;;;;;;16.90;10.38;;;10.30;99.90;;;8.91;72.85;100375.50;5010352;28;20029;-77
2023/04/11 02:50:27;;;;;;;16.50;10.30;;;10.30;99.90;;;8.92;72.80;100376.34;5021709;28;20479;-77
2023/04/11 02:52:53;;;;;;;14.98;10.60;;;10.30;99.90;;;8.89;72.89;100376.47;5021954;28;20107;-78
2023/04/11 02:55:22;;;;;;;17.40;10.23;;;10.30;99.90;;;8.89;72.66;100368.59;5011127;28;20041;-77
2023/04/11 02:57:49;;;;;;;15.07;10.57;;;10.20;99.90;;;8.88;73.14;100364.28;5018376;28;20033;-77
2023/04/11 03:00:18;;;;;;;15.73;9.95;;;10.30;99.90;;;8.83;72.56;100356.59;5010064;28;20037;-77
2023/04/11 03:02:43;;;;;;;15.45;10.70;;;10.20;99.90;;;8.87;72.94;100362.56;5021309;28;20025;-77
2023/04/11 03:05:09;;;;;;;17.35;10.63;;;10.20;99.90;;;8.86;72.47;100351.22;5023584;28;20099;-77
2023/04/11 03:07:37;;;;;;;19.33;10.23;;;10.20;99.90;;;8.86;72.67;100353.00;5034144;28;20440;-77
2023/04/11 03:10:04;;;;;;;15.20;10.52;;;10.20;99.90;;;8.85;73.13;100346.03;5035815;28;20140;-77
2023/04/11 03:12:30;;;;;;;14.98;10.18;;;10.20;99.90;;;8.83;73.21;100344.34;5003516;28;20025;-77
2023/04/11 03:14:55;;;;;;;17.13;10.10;;;10.30;99.90;;;8.83;73.31;100348.72;5009311;28;20040;-77
2023/04/11 03:17:21;;;;;;;15.20;10.95;;;10.20;99.90;;;8.79;73.00;100347.16;5042467;28;20036;-77
2023/04/11 03:19:47;;;;;;;16.33;11.45;;;10.20;99.90;;;8.79;73.20;100350.66;5022760;28;20108;-77
2023/04/11 03:22:13;;;;;;;15.40;11.15;;;10.20;99.90;;;8.79;73.14;100342.78;5021333;28;20133;-78
2023/04/11 03:24:39;;;;;;;17.33;11.15;;;10.20;99.90;;;8.79;73.51;100342.78;5014525;28;20103;-77
2023/04/11 03:27:05;;;;;;;14.55;10.30;;;10.20;99.90;;;8.78;73.51;100340.22;5024930;28;20043;-78
2023/04/11 03:29:31;;;;;;;15.93;11.18;;;10.20;99.90;;;8.76;73.08;100342.91;5020904;28;20046;-77
2023/04/11 03:31:58;;;;;;;16.95;11.57;;;10.10;99.90;;;8.76;73.59;100336.81;5039948;28;20087;-77
2023/04/11 03:34:25;;;;;;;13.15;10.25;;;10.10;99.90;;;8.72;73.75;100332.59;5022556;28;20025;-77
2023/04/11 03:36:51;;;;;;;18.10;10.48;;;10.10;99.90;;;8.70;73.13;100340.53;5016719;28;20053;-77
2023/04/11 03:39:20;;;;;;;14.45;9.80;;;10.10;99.90;;;8.71;73.57;100341.41;5025251;28;20032;-77
2023/04/11 03:41:47;;;;;;;13.65;9.77;;;10.10;99.90;;;8.68;73.72;100336.28;5009324;28;20045;-77
2023/04/11 03:44:13;;;;;;;14.73;10.07;;;;;;;8.65;73.82;100333.81;5017812;28;20082;-77
2023/04/11 03:46:39;;;;;;;15.02;10.82;;;10.00;99.90;;;8.64;73.97;100319.84;5040255;28;20041;-77
2023/04/11 03:49:05;;;;;;;18.40;10.90;;;10.10;99.90;;;8.63;73.36;100318.97;5041110;28;20063;-78
2023/04/11 03:51:31;;;;;;;15.18;10.32;;;10.00;99.90;;;8.60;73.23;100315.66;5025157;28;20033;-78
2023/04/11 03:53:57;;;;;;;17.52;10.82;;;10.00;99.90;;;8.59;73.49;100311.31;5021455;28;20106;-77
2023/04/11 03:56:23;;;;;;;12.95;9.80;;;10.00;99.90;;;8.59;74.07;100327.91;5022955;28;20041;-77
2023/04/11 03:58:48;;;;;;;13.52;9.70;;;10.00;99.90;;;8.57;73.82;100314.03;5021103;28;20037;-77
2023/04/11 04:01:14;;;;;;;16.92;10.05;;;10.00;99.90;;;8.57;73.64;100307.91;5004815;28;20051;-77
2023/04/11 04:03:40;;;;;;;16.17;9.90;;;10.00;99.90;;;8.55;73.99;100299.25;5024575;28;20025;-77
2023/04/11 04:06:06;;;;;;;14.90;10.80;;;9.90;99.90;;;8.54;74.37;100295.78;5019738;28;20047;-78
2023/04/11 04:08:32;;;;;;;16.88;11.43;;;9.90;99.90;;;8.55;74.04;100286.13;5008701;28;20029;-77
2023/04/11 04:10:58;;;;;;;14.73;10.00;;;9.90;99.90;;;8.54;74.45;100292.31;5002787;28;20044;-77
2023/04/11 04:13:24;;;;;;;14.18;9.90;;;9.90;99.90;;;8.51;74.20;100285.44;5021312;28;20029;-77
2023/04/11 04:15:50;;;;;;;15.57;10.35;;;9.90;99.90;;;8.50;74.49;100294.22;5023865;28;20066;-77
2023/04/11 04:18:16;;;;;;;20.98;10.57;;;9.90;99.90;;;8.53;74.19;100287.97;5020109;28;20041;-77
2023/04/11 04:20:42;;;;;;;16.90;11.10;;;9.90;99.90;;;8.50;74.43;100288.13;5039584;28;20040;-77
2023/04/11 04:23:07;;;;;;;15.10;10.10;;;9.90;99.90;;;8.48;74.81;100301.28;5004997;28;20029;-77
2023/04/11 04:25:34;;;;;;;14.80;10.98;;;9.90;99.90;;;8.48;75.10;100303.06;5021975;28;20059;-77
2023/04/11 04:27:59;;;;;;;14.82;10.65;;;9.90;99.90;;;8.49;74.81;100302.13;5024040;28;20037;-78
2023/04/11 04:30:27;;;;;;;13.80;10.20;;;9.90;99.90;;;8.49;74.70;100296.88;5020820;28;20041;-78
2023/04/11 04:32:57;;;;;;;14.75;10.20;;;9.90;99.90;;;8.50;74.82;100294.22;5020899;28;20036;-77
2023/04/11 04:35:24;;;;;;;15.00;10.25;;;9.90;99.90;;;8.51;74.52;100293.31;5019541;28;20313;-78
2023/04/11 04:37:50;;;;;;;15.38;10.50;;;9.90;99.90;;;8.52;74.95;100288.91;5040946;28;20035;-78
2023/04/11 04:40:19;;;;;;;15.20;10.43;;;9.90;99.90;;;8.51;75.11;100293.31;5041609;28;20041;-78
2023/04/11 04:42:48;;;;;;;15.85;10.57;;;9.90;99.90;;;8.50;75.41;100285.50;5016168;28;20033;-77
2023/04/11 04:45:15;;;;;;;15.80;10.50;;;9.90;99.90;;;8.50;75.67;100291.59;5020574;28;20034;-77
2023/04/11 04:47:41;;;;;;;14.25;10.23;;;9.90;99.90;;;8.50;76.05;100290.75;5021100;28;20538;-77
2023/04/11 04:50:07;;;;;;;18.83;10.85;;;9.80;99.90;;;8.48;76.16;100287.34;5023128;28;20120;-78
2023/04/11 04:52:34;;;;;;;17.75;10.85;;;9.80;99.90;;;8.46;77.04;100283.94;5038932;28;20505;-78
2023/04/11 04:55:00;;;;;;;14.50;10.88;;;9.80;99.90;;;8.41;77.35;100287.59;5018081;28;20037;-78
2023/04/11 04:57:28;;;;;;;17.15;11.35;;;9.80;99.90;;;8.39;77.32;100278.91;5020196;28;20033;-78
2023/04/11 04:59:56;;;;;;;19.38;11.70;;;9.80;99.90;;;8.35;77.96;100277.34;5021927;28;20032;-79
2023/04/11 05:02:24;;;;;;;17.05;11.20;;;9.70;99.90;;;8.33;78.38;100273.09;5034065;28;20033;-78
2023/04/11 05:04:50;;;;;;;16.05;12.10;;;9.70;99.90;;;8.32;78.83;100267.00;5021383;28;20497;-79
2023/04/11 05:07:17;;;;;;;22.33;11.55;;;9.70;99.90;;;8.27;78.86;100271.63;5007358;28;20162;-79
2023/04/11 05:09:43;;;;;;;15.98;11.75;;;9.70;99.90;;;8.25;79.33;100281.31;4995273;28;20113;-78
2023/04/11 05:12:09;;;;;;;20.40;11.88;;;9.60;99.90;;;8.31;79.57;100280.19;5020678;28;20094;-79
2023/04/11 05:14:35;;;;;;;15.82;11.73;;;9.70;99.90;;;8.36;79.90;100284.31;5014240;28;20033;-78
2023/04/11 05:17:00;;;;;;;16.92;11.82;;;9.60;99.90;;;8.30;80.37;100281.09;4998846;28;20041;-79
2023/04/11 05:19:26;;;;;;;17.85;11.98;;;9.60;99.90;;;8.29;80.39;100275.00;4992081;28;20112;-78
2023/04/11 05:21:53;;;;;;;15.65;12.02;;;9.60;99.90;;;8.32;81.05;100276.66;5014624;28;20045;-79
2023/04/11 05:24:19;;;;;;;18.70;13.20;;;9.60;99.90;;;8.28;81.71;100275.06;5011139;28;20528;-78
2023/04/11 05:26:44;;;;;;;19.52;11.98;;;9.60;99.90;;;8.28;82.03;100275.91;5031625;28;20108;-80
2023/04/11 05:29:10;;;;;;;19.83;12.93;;;9.60;99.90;;;8.32;82.13;100287.13;4997188;28;20038;-79
2023/04/11 05:31:36;;;;;;;17.27;11.63;;;9.60;99.90;;;8.29;82.73;100282.00;4963227;28;20605;-79
2023/04/11 05:34:05;;;;;;;16.15;11.23;;;9.60;99.90;;;8.22;82.85;100271.78;4975140;28;20042;-79
2023/04/11 05:36:31;;;;;;;16.52;11.60;;;9.50;99.90;;;8.20;83.75;100271.00;4994115;28;20046;-80
2023/04/11 05:38:57;;;;;;;17.58;11.77;;;9.50;99.90;;;8.18;84.76;100270.22;4948995;28;20034;-79
2023/04/11 05:41:23;;;;;;;19.98;12.30;;;9.50;99.90;;;8.21;84.75;100251.75;4964625;28;20048;-80
2023/04/11 05:43:49;;;;;;;18.00;12.00;;;9.50;99.90;;;8.20;85.24;100257.03;4979303;28;20033;-78
2023/04/11 05:46:18;;;;;;;21.48;12.18;;;9.50;99.90;;;8.19;86.26;100257.97;4983071;28;20048;-80
2023/04/11 05:48:47;;;;;;;18.85;12.88;;;9.50;99.90;;;8.15;86.32;100245.91;4931157;28;20108;-80
2023/04/11 05:51:12;;;;;;;20.23;13.00;;;9.40;99.90;;;8.06;87.43;100262.91;5010881;28;20052;-79
2023/04/11 05:53:38;;;;;;;19.02;13.15;;;9.40;99.90;;;7.98;88.31;100251.91;4964028;28;20475;-78
2023/04/11 05:56:05;;;;;;;23.70;13.25;;;9.40;99.90;;;7.94;89.31;100259.03;4984798;28;20044;-79
2023/04/11 05:58:32;;;;;;;19.05;13.13;;;9.40;99.90;;;7.95;89.59;100246.78;4966196;28;20033;-79
2023/04/11 06:01:01;;;;;;;20.45;13.40;;;9.30;99.90;;;7.95;90.72;100242.41;4983348;28;20084;-79
2023/04/11 06:03:27;;;;;;;17.80;12.77;;;9.30;99.90;;;7.92;91.07;100244.28;5013988;28;20370;-78
2023/04/11 06:05:53;;;;;;;17.65;12.75;;;9.30;99.90;;;7.85;92.00;100246.31;4990154;28;20045;-79
2023/04/11 06:08:20;;;;;;;18.83;12.68;;;9.20;99.90;;;7.82;92.52;100249.09;4993225;28;20065;-81
2023/04/11 06:10:46;;;;;;;19.92;13.90;;;9.20;99.90;;;7.81;93.70;100234.25;4961180;28;20079;-79
2023/04/11 06:13:20;;;;;;;19.80;12.77;;;9.20;99.90;;;7.84;93.99;100239.41;4991821;28;20037;-80
2023/04/11 06:15:46;;;;;;;21.40;13.30;;;9.20;99.90;;;7.85;93.83;100243.69;4954127;28;20045;-80
2023/04/11 06:18:12;;;;;;;20.05;13.13;;;9.60;99.90;;;7.86;94.42;100236.69;4960389;28;20058;-80
2023/04/11 06:20:38;;;;;;;23.52;15.00;;;9.20;99.90;;;7.81;94.55;100237.72;4959372;28;20708;-80
2023/04/11 06:23:09;;;;;;;23.42;14.18;;;9.20;99.90;;;7.81;94.72;100242.97;4975501;28;20457;-80
2023/04/11 06:25:35;;;;;;;21.50;14.25;;;9.20;99.90;;;7.86;95.25;100234.94;4949829;28;20034;-80
2023/04/11 06:28:00;;;;;;;20.70;14.65;;;9.20;99.90;;;7.88;95.40;100224.38;4982032;28;20041;-80
2023/04/11 06:30:26;;;;;;;20.25;13.80;;;9.20;99.90;;;7.87;95.61;100225.28;5020691;28;20458;-79
2023/04/11 06:32:52;;;;;;;20.55;14.35;;;9.20;99.90;;;7.90;94.94;100230.41;4962163;28;20033;-79
2023/04/11 06:35:19;;;;;;;18.50;13.18;;;9.20;99.90;;;7.90;95.34;100227.78;5003158;28;20035;-79
2023/04/11 06:37:45;;;;;;;21.55;14.75;;;9.30;99.90;;;7.98;95.74;100231.75;5005657;28;20397;-79
2023/04/11 06:40:16;;;;;;;18.70;13.25;;;9.30;99.90;;;8.00;95.45;100229.94;4981488;28;20423;-79
2023/04/11 06:42:41;;;;;;;23.60;13.75;;;9.30;99.90;;;8.01;95.80;100222.91;4974218;28;20068;-80
2023/04/11 06:45:08;;;;;;;20.42;13.75;;;9.30;99.90;;;8.05;96.36;100227.09;4969877;28;20099;-80
2023/04/11 06:47:34;;;;;;;20.20;13.32;;;9.40;99.90;;;8.04;96.61;100232.44;4991021;28;20049;-79
2023/04/11 06:50:03;;;;;;;21.17;14.02;;;9.40;99.90;;;8.05;97.22;100237.59;4957320;28;20064;-79
2023/04/11 06:52:31;;;;;;;22.02;14.20;;;9.40;99.90;;;8.03;97.57;100228.94;4958977;28;20042;-79
2023/04/11 06:54:57;;;;;;;25.85;14.48;;;9.40;99.90;;;8.09;97.60;100233.06;4951307;28;20088;-78
2023/04/11 06:57:22;;;;;;;20.95;14.25;;;9.40;99.90;;;8.11;97.85;100236.47;4978005;28;20115;-79
2023/04/11 06:59:48;;;;;;;23.33;14.52;;;9.40;99.90;;;8.13;98.42;100235.47;4962218;28;20029;-79
2023/04/11 07:02:14;;;;;;;23.63;15.07;;;9.40;99.90;;;8.09;98.34;100235.69;4994041;28;20080;-80
2023/04/11 07:04:47;;;;;;;26.02;15.00;;;9.40;99.90;;;8.12;98.80;100232.91;4991319;22;20037;-80
2023/04/11 07:07:13;;;;;;;22.60;15.23;;;9.50;99.90;;;8.17;99.54;100241.47;4964379;28;20047;-79
2023/04/11 07:09:39;;;;;;;23.48;15.88;;;9.50;99.90;;;8.17;99.27;100244.06;4956185;28;20029;-78
2023/04/11 07:12:05;;;;;;;27.23;15.85;;;9.50;99.90;;;8.21;99.83;100241.25;4991162;28;20174;-79
2023/04/11 07:14:31;;;;;;;26.02;15.13;;;9.50;99.90;;;8.17;99.76;100237.06;4988048;28;20056;-78
2023/04/11 07:17:01;;;;;;;25.17;16.10;;;9.50;99.90;;;8.15;100.00;100231.03;4991992;28;22709;-79
2023/04/11 07:19:27;;;;;;;27.52;16.30;;;9.50;99.90;;;8.21;100.00;100243.03;4954648;28;20067;-78
2023/04/11 07:21:53;;;;;;;25.23;16.05;;;9.50;99.90;;;8.20;100.00;100234.28;5005833;28;20111;-79
2023/04/11 07:24:19;;;;;;;30.05;16.10;;;9.50;99.90;;;8.30;100.00;100232.13;4951386;28;20034;-79
2023/04/11 07:26:46;;;;;;;23.13;15.07;;;9.60;99.90;;;8.40;100.00;100228.19;4994550;28;20120;-78
2023/04/11 07:29:17;;;;;;;25.23;16.05;;;9.70;99.90;;;8.50;100.00;100219.88;4988606;28;20045;-79
2023/04/11 07:31:44;;;;;;;25.73;15.90;;;9.70;99.90;;;8.56;100.00;100222.25;5017263;28;20453;-79
2023/04/11 07:34:10;;;;;;;24.50;15.05;;;9.80;99.90;;;8.56;100.00;100227.50;4992733;28;20037;-79
2023/04/11 07:36:36;;;;;;;25.50;15.93;;;9.90;99.90;;;8.74;100.00;100226.63;4999433;28;20030;-79
2023/04/11 07:39:15;;;;;;;22.17;14.27;;;10.00;99.90;;;8.94;100.00;100224.81;4960435;28;20104;-79
2023/04/11 07:41:41;;;;;;;20.70;14.88;;;10.10;99.90;;;9.08;100.00;100214.50;4986906;28;20083;-78
2023/04/11 07:44:08;;;;;;;22.38;14.02;;;10.20;99.90;;;9.17;99.97;100224.56;4987467;28;20128;-78
2023/04/11 07:46:36;;;;;;;22.60;14.57;;;10.30;99.90;;;9.23;99.89;100218.16;4956235;28;20103;-77
2023/04/11 07:49:02;;;;;;;28.55;14.48;;;10.40;99.90;;;9.33;98.93;100221.19;4971073;28;20483;-80
2023/04/11 07:51:28;;;;;;;20.70;13.18;;;10.40;99.90;;;9.32;98.76;100219.50;4975940;28;20084;-78
2023/04/11 07:53:54;;;;;;;19.38;12.30;;;;;;;9.31;98.35;100226.53;4973670;28;20046;-79
2023/04/11 07:56:32;;;;;;;21.88;12.65;;;10.50;99.90;;;9.34;97.69;100217.66;5029876;28;20041;-78
2023/04/11 07:58:57;;;;;;;23.75;11.90;;;10.60;99.90;;;9.36;97.34;100215.78;4990847;28;20029;-78
2023/04/11 08:01:25;;;;;;;16.13;11.77;;;10.50;99.90;;;9.39;97.30;100219.09;5024853;28;20551;-79
2023/04/11 08:03:56;;;;;;;16.77;10.77;;;10.60;99.90;;;9.44;97.07;100216.28;4987898;28;20049;-78
2023/04/11 08:06:22;;;;;;;16.02;10.68;;;10.60;99.90;;;9.50;96.11;100220.34;5002212;28;20048;-79
2023/04/11 08:08:49;;;;;;;12.73;8.75;;;10.60;99.90;;;9.48;96.10;100225.69;5001991;28;20084;-79
2023/04/11 08:11:15;;;;;;;12.88;9.10;;;10.70;99.90;;;9.49;95.30;100219.50;4987003;28;20043;-80
2023/04/11 08:13:42;;;;;;;14.18;8.50;;;10.70;99.90;;;9.51;94.51;100222.91;5001846;28;20053;-79
2023/04/11 08:16:14;;;;;;;11.18;7.40;;;10.70;99.90;;;9.49;94.27;100219.50;4984710;28;20111;-78
2023/04/11 08:18:41;;;;;;;15.60;7.82;;;10.70;99.90;;;9.55;94.00;100220.97;5027646;28;20029;-78
2023/04/11 08:21:09;;;;;;;12.98;7.85;;;10.70;99.90;;;9.62;93.40;100227.63;5013464;28;20083;-79
2023/04/11 08:23:36;;;;;;;14.20;9.05;;;10.80;99.90;;;9.71;93.86;100234.19;5010673;28;20037;-79
2023/04/11 08:26:02;;;;;;;12.07;8.38;;;;;;;9.78;93.64;100246.09;5031854;28;20405;-79
2023/04/11 08:28:31;;;;;;;12.88;8.70;;;10.90;99.90;;;9.92;93.50;100256.75;5009387;28;20539;-79
2023/04/11 08:30:57;;;;;;;14.30;9.15;;;11.00;99.90;;;9.98;93.63;100252.97;4997808;28;20029;-79
2023/04/11 08:33:26;;;;;;;15.63;9.00;;;11.10;99.90;;;10.11;92.17;100253.16;4960459;28;20632;-79
2023/04/11 08:35:57;;;;;;;16.17;9.32;;;11.20;99.90;;;10.21;92.41;100257.88;5022377;28;20640;-79
2023/04/11 08:38:23;;;;;;;12.93;8.00;;;11.30;99.90;;;10.30;91.27;100266.25;5006835;28;20108;-79
2023/04/11 08:40:49;;;;;;;11.85;8.73;;;11.30;99.90;;;10.37;90.68;100263.22;5000473;28;20062;-79
2023/04/11 08:43:15;;;;;;;15.57;8.82;;;11.40;99.90;;;10.39;90.35;100271.88;4968700;28;20033;-78
2023/04/11 08:45:41;;;;;;;11.30;7.47;;;11.50;99.90;;;10.41;89.85;100262.13;4993541;28;20071;-79
2023/04/11 08:48:11;;;;;;;9.63;6.28;;;11.50;99.90;;;10.48;87.73;100267.06;5014149;28;20050;-78
2023/04/11 08:50:40;;;;;;;10.65;6.20;;;11.60;99.90;;;10.50;86.68;100275.75;5020573;28;20041;-79
2023/04/11 08:53:07;;;;;;;8.65;5.28;;;11.60;99.90;;;10.69;86.21;100271.19;4992589;28;20045;-79
2023/04/11 08:55:33;;;;;;;11.50;5.28;;;11.70;99.90;;;10.69;85.65;100271.19;5001840;28;20029;-78
2023/04/11 08:58:01;;;;;;;8.23;4.93;;;11.70;99.90;;;10.70;83.94;100267.59;5001420;28;20071;-79
2023/04/11 09:00:31;;;;;;;8.95;4.28;;;11.80;99.90;;;10.78;83.43;100277.72;5004600;28;20243;-79
2023/04/11 09:03:10;;;;;;;14.18;4.07;;;11.80;99.90;;;10.75;82.18;100270.81;4997507;28;20022;-79
2023/04/11 09:05:47;;;;;;;7.18;3.75;;;11.80;99.90;;;10.75;81.42;100276.09;4974030;28;20116;-79
2023/04/11 09:08:15;;;;;;;6.40;3.83;;;11.80;99.90;;;10.73;82.08;100275.31;4996955;28;20041;-79
2023/04/11 09:10:45;;;;;;;7.72;3.90;;;11.80;99.90;;;10.65;81.19;100288.91;4996115;28;20107;-78
2023/04/11 09:13:31;;;;;;;9.02;3.92;;;11.80;99.90;;;10.70;81.56;100278.13;4996974;28;20045;-79
2023/04/11 09:16:15;;;;;;;11.63;3.78;;;11.80;99.90;;;10.74;81.86;100282.31;5012022;28;20049;-78
2023/04/11 09:18:45;;;;;;;7.57;3.40;;;11.80;99.90;;;10.74;81.25;100284.94;5008533;28;20068;-79
2023/04/11 09:21:18;;;;;;;11.90;4.22;;;11.80;99.90;;;10.83;80.91;100286.22;5012638;28;20033;-79
2023/04/11 09:23:46;;;;;;;8.63;3.60;;;11.90;99.90;;;10.91;80.76;100277.88;4997460;28;20040;-80
2023/04/11 09:26:24;;;;;;;10.95;3.67;;;12.00;99.90;;;11.08;80.02;100272.56;5013311;28;20029;-79
2023/04/11 09:28:53;;;;;;;8.93;3.40;;;12.10;99.90;;;11.22;79.80;100282.31;5014042;28;20737;-79
2023/04/11 09:31:23;;;;;;;13.73;3.08;;;12.20;99.90;;;11.27;79.32;100283.75;5029571;28;20073;-78
2023/04/11 09:33:58;;;;;;;5.57;2.53;;;12.30;99.90;;;11.27;78.84;100277.63;5031109;28;20110;-79
2023/04/11 09:36:28;;;;;;;6.30;2.45;;;12.30;99.90;;;11.20;78.27;100281.53;5014279;28;20552;-78
2023/04/11 09:38:58;;;;;;;10.93;3.20;;;12.20;99.90;;;11.04;78.44;100289.47;4978976;28;20037;-78
2023/04/11 09:41:37;;;;;;;7.10;2.70;;;12.10;99.90;;;10.78;78.31;100290.91;4992855;28;20045;-78
2023/04/11 09:44:06;;;;;;;6.15;2.70;;;11.90;99.90;;;10.63;78.98;100287.31;5008345;28;20172;-78
2023/04/11 09:46:36;;;;;;;11.98;3.00;;;11.90;99.90;;;10.63;79.40;100290.78;5015679;28;20033;-79
2023/04/11 09:49:02;;;;;;;7.53;2.53;;;11.80;99.90;;;10.68;79.44;100285.25;5023727;28;20040;-79
2023/04/11 09:51:31;;;;;;;10.02;2.90;;;11.80;99.90;;;10.79;79.23;100288.16;5014941;28;20068;-79
2023/04/11 09:54:00;;;;;;;8.77;2.25;;;11.90;99.90;;;10.86;78.71;100288.66;5010268;28;20048;-78
2023/04/11 09:56:35;;;;;;;7.88;1.92;;;12.00;99.90;;;10.95;77.93;100290.81;5008134;28;20033;-80
2023/04/11 09:59:05;;;;;;;7.18;1.98;;;12.00;99.90;;;11.05;77.28;100286.72;5018051;28;20032;-79
2023/04/11 10:01:36;;;;;;;9.73;2.08;;;12.10;99.90;;;11.21;76.78;100292.00;4997425;28;20033;-79
2023/04/11 10:04:09;;;;;;;4.95;1.60;;;12.20;99.90;;;11.39;77.25;100295.38;5011058;28;20037;-78
2023/04/11 10:07:13;;;;;;;8.80;1.60;;;12.40;99.90;;;11.49;76.88;100288.66;5004109;28;20037;-79
2023/04/11 10:09:46;;;;;;;9.90;1.52;;;12.40;99.90;;;11.55;75.47;100290.06;5016386;28;20509;-79
2023/04/11 10:12:32;;;;;;;8.38;1.70;;;12.50;99.90;;;11.73;75.40;100284.66;5011838;28;20051;-79